Carmel by the Sea, California
Current Conditions -  °F | °C
As of 12:54 PM on Thursday 23 Oct 2014 (Local Time) from KMRY Reporting Station
Clear Clear  
Wind Chill: 72°   Ceiling: Unl
Heat Index: 72°   Visibility: 10mi
Dew Point: 50°   Wind: 8mph
Humidity: 46%   Direction: 300°WNW
Pressure: 30.05"   Gusts: NA
Location:  36.5547°N, 121.916°W
Report Text: KMRY 231954Z 30007KT 10SM CLR 22/10 A3005 RMK AO2 SLP186 T02220100
Loading
Personal Weather Stations






























Interactive Weather Map
Tropical Storm Tracking
New forecast layout! Learn more

10-Day Weather Forecast

Advertisements
Track Severe Weather on mobile